Time;durP1;ratioP1;P1;durP2;ratioP2;P2;SDS_P1;SDS_P2;PMS_P1;PMS_P2;Temp;Humidity;BMP_temperature;BMP_pressure;BME280_temperature;BME280_humidity;BME280_pressure;Samples;Min_cycle;Max_cycle;Signal;HPM_P1;HPM_P2
2022/04/21 00:00:16;;;;;;;;;5.50;5.00;;;;;-146.67;100.00;57155.34;5083951;28;61893;-87
2022/04/21 00:02:42;;;;;;;;;10.50;8.00;;;;;-146.67;100.00;57155.34;5084481;28;62095;-87
2022/04/21 00:05:10;;;;;;;;;11.75;10.25;;;;;-146.67;100.00;57155.34;5083265;28;62043;-87
2022/04/21 00:07:36;;;;;;;;;9.50;9.00;;;;;-146.67;100.00;57155.34;5083834;28;62346;-87
2022/04/21 00:10:07;;;;;;;;;9.50;8.50;;;;;-146.67;100.00;57155.34;5083901;28;61702;-87
2022/04/21 00:12:34;;;;;;;;;7.75;6.25;;;;;-146.67;100.00;57155.34;5084194;28;61752;-87
2022/04/21 00:15:04;;;;;;;;;11.00;9.00;;;;;-146.67;100.00;57155.34;5098846;27;64764;-87
2022/04/21 00:17:30;;;;;;;;;10.00;9.25;;;;;-146.67;100.00;57155.34;5083850;28;62148;-87
2022/04/21 00:19:55;;;;;;;;;9.75;9.50;;;;;-146.67;100.00;57155.34;5084119;28;61855;-87
2022/04/21 00:25:05;;;;;;;;;12.50;10.00;;;;;-146.67;100.00;57155.34;5083247;28;62437;-87
2022/04/21 00:27:36;;;;;;;;;11.00;9.50;;;;;-146.67;100.00;57155.34;5082184;28;61980;-87
2022/04/21 00:30:01;;;;;;;;;10.50;9.50;;;;;-146.67;100.00;57155.34;5083762;28;63098;-87
2022/04/21 00:32:26;;;;;;;;;10.75;10.75;;;;;-146.67;100.00;57155.34;5083863;28;61731;-87
2022/04/21 00:34:52;;;;;;;;;13.00;11.50;;;;;-146.67;100.00;57155.34;5083002;28;61737;-86
2022/04/21 00:37:17;;;;;;;;;14.75;11.50;;;;;-146.67;100.00;57155.34;5083071;28;61888;-87
2022/04/21 00:39:43;;;;;;;;;11.25;9.75;;;;;-146.67;100.00;57155.34;5098921;27;61871;-87
2022/04/21 00:42:08;;;;;;;;;9.25;9.25;;;;;-146.67;100.00;57155.34;5099323;27;61643;-87
2022/04/21 00:44:34;;;;;;;;;14.50;12.50;;;;;-146.67;100.00;57155.34;5082508;28;61897;-87
2022/04/21 00:47:03;;;;;;;;;13.00;13.00;;;;;-146.67;100.00;57155.34;5099127;27;62198;-87
2022/04/21 00:49:30;;;;;;;;;12.50;10.00;;;;;-146.67;100.00;57155.34;5099040;27;62039;-87
2022/04/21 00:51:59;;;;;;;;;7.00;7.00;;;;;-146.67;100.00;57155.34;5083557;28;61752;-87
2022/04/21 00:54:25;;;;;;;;;16.75;11.00;;;;;-146.67;100.00;57155.34;5082685;28;61821;-87
2022/04/21 00:56:50;;;;;;;;;9.25;9.00;;;;;-146.67;100.00;57155.34;5083438;28;62240;-87
2022/04/21 00:59:16;;;;;;;;;12.25;11.25;;;;;-146.67;100.00;57155.34;5098681;27;61919;-87
2022/04/21 01:04:26;;;;;;;;;17.00;11.50;;;;;-146.67;100.00;57155.34;5082555;28;61837;-87
2022/04/21 01:06:52;;;;;;;;;11.00;9.25;;;;;-146.67;100.00;57155.34;5082561;28;62105;-87
2022/04/21 01:09:18;;;;;;;;;16.50;10.25;;;;;-146.67;100.00;57155.34;5083049;28;61887;-87
2022/04/21 01:11:45;;;;;;;;;13.50;11.75;;;;;-146.67;100.00;57155.34;5083385;28;61861;-87
2022/04/21 01:14:14;;;;;;;;;13.75;11.00;;;;;-146.67;100.00;57155.34;5082562;28;62759;-87
2022/04/21 01:16:48;;;;;;;;;13.00;10.50;;;;;-146.67;100.00;57155.34;5082727;27;62153;-87
2022/04/21 01:19:14;;;;;;;;;9.75;9.25;;;;;-146.67;100.00;57155.34;5083181;28;61723;-87
2022/04/21 01:21:40;;;;;;;;;9.50;9.00;;;;;-146.67;100.00;57155.34;5082914;28;61652;-87
2022/04/21 01:24:09;;;;;;;;;12.00;11.00;;;;;-146.67;100.00;57155.34;5097421;27;63688;-87
2022/04/21 01:26:37;;;;;;;;;11.75;11.25;;;;;-146.67;100.00;57155.34;5082826;28;61971;-87
2022/04/21 01:29:05;;;;;;;;;13.25;12.00;;;;;-146.67;100.00;57155.34;5083051;28;61964;-87
2022/04/21 01:31:30;;;;;;;;;14.25;12.25;;;;;-146.67;100.00;57155.34;5097814;27;61772;-87
2022/04/21 01:33:56;;;;;;;;;10.25;10.25;;;;;-146.67;100.00;57155.34;5080764;28;63624;-86
2022/04/21 01:36:21;;;;;;;;;14.00;11.50;;;;;-146.67;100.00;57155.34;5082540;28;62199;-87
2022/04/21 01:41:31;;;;;;;;;8.75;8.75;;;;;-146.67;100.00;57155.34;5082456;28;61821;-87
2022/04/21 01:43:56;;;;;;;;;6.50;5.00;;;;;-146.67;100.00;57155.34;5082177;28;62370;-86
2022/04/21 01:46:22;;;;;;;;;10.50;5.25;;;;;-146.67;100.00;57155.34;5082257;28;62016;-86
2022/04/21 01:48:47;;;;;;;;;10.50;10.00;;;;;-146.67;100.00;57155.34;5082529;28;61718;-86
2022/04/21 01:51:12;;;;;;;;;10.25;9.00;;;;;-146.67;100.00;57155.34;5098161;27;61798;-87
2022/04/21 01:53:52;;;;;;;;;10.50;10.50;;;;;-146.67;100.00;57155.34;5081512;28;62681;-87
2022/04/21 01:56:17;;;;;;;;;9.75;9.75;;;;;-146.67;100.00;57155.34;5082415;28;61955;-86
2022/04/21 01:58:43;;;;;;;;;11.50;11.50;;;;;-146.67;100.00;57155.34;5082304;28;62031;-87
2022/04/21 02:01:23;;;;;;;;;9.50;9.50;;;;;-146.67;100.00;57155.34;5082254;28;62066;-87
2022/04/21 02:03:49;;;;;;;;;11.50;10.00;;;;;-146.67;100.00;57155.34;5096436;27;63792;-87
2022/04/21 02:06:14;;;;;;;;;9.50;9.50;;;;;-146.67;100.00;57155.34;5082030;28;61877;-88
2022/04/21 02:08:39;;;;;;;;;12.25;10.50;;;;;-146.67;100.00;57155.34;5081826;28;61936;-87
2022/04/21 02:11:05;;;;;;;;;13.00;10.75;;;;;-146.67;100.00;57155.34;5082191;28;62056;-87
2022/04/21 02:13:30;;;;;;;;;8.50;7.25;;;;;-146.67;100.00;57155.34;5081524;28;62181;-86
2022/04/21 02:15:56;;;;;;;;;13.75;11.00;;;;;-146.67;100.00;57155.34;5082063;28;61936;-87
2022/04/21 02:18:23;;;;;;;;;14.25;14.00;;;;;-146.67;100.00;57155.34;5097539;27;61952;-86
2022/04/21 02:20:52;;;;;;;;;15.75;9.75;;;;;-146.67;100.00;57155.34;5097961;27;61957;-87
2022/04/21 02:23:18;;;;;;;;;17.00;12.50;;;;;-146.67;100.00;57155.34;5081754;27;61844;-87
2022/04/21 02:25:43;;;;;;;;;11.25;11.25;;;;;-146.67;100.00;57155.34;5081939;28;62067;-87
2022/04/21 02:28:08;;;;;;;;;13.75;13.00;;;;;-146.67;100.00;57155.34;5082020;28;61928;-86
2022/04/21 02:30:34;;;;;;;;;17.75;14.75;;;;;-146.67;100.00;57155.34;5097581;27;61800;-87
2022/04/21 02:33:00;;;;;;;;;9.75;9.75;;;;;-146.67;100.00;57155.34;5081194;28;62173;-87
2022/04/21 02:35:25;;;;;;;;;12.00;12.00;;;;;-146.67;100.00;57155.34;5085161;28;61967;-86
2022/04/21 02:37:51;;;;;;;;;13.75;11.50;;;;;-146.67;100.00;57155.34;5085093;28;61778;-87
2022/04/21 02:40:16;;;;;;;;;12.25;11.25;;;;;-146.67;100.00;57155.34;5085466;28;61979;-86
2022/04/21 02:42:42;;;;;;;;;16.50;13.50;;;;;-146.67;100.00;57155.34;5100216;27;64787;-87
2022/04/21 02:45:12;;;;;;;;;15.50;10.75;;;;;-146.67;100.00;57155.34;5085097;28;61940;-87
2022/04/21 02:47:43;;;;;;;;;16.25;13.50;;;;;-146.67;100.00;57155.34;5084991;28;61925;-87
2022/04/21 02:50:11;;;;;;;;;14.25;13.75;;;;;-146.67;100.00;57155.34;5085470;28;61793;-86
2022/04/21 02:52:38;;;;;;;;;11.00;11.00;;;;;-146.67;100.00;57155.34;5100364;27;64729;-86
2022/04/21 02:57:49;;;;;;;;;17.75;14.25;;;;;-146.67;100.00;57155.34;5085148;28;61783;-87
2022/04/21 03:00:15;;;;;;;;;16.50;10.25;;;;;-146.67;100.00;57155.34;5085130;28;61788;-86
2022/04/21 03:02:40;;;;;;;;;12.25;12.00;;;;;-146.67;100.00;57155.34;5084222;28;61766;-87
2022/04/21 03:05:06;;;;;;;;;15.00;12.75;;;;;-146.67;100.00;57155.34;5100679;27;61875;-87
2022/04/21 03:07:32;;;;;;;;;11.25;10.25;;;;;-146.67;100.00;57155.34;5100638;27;61983;-87
2022/04/21 03:09:57;;;;;;;;;11.00;9.00;;;;;-146.67;100.00;57155.34;5100323;27;61989;-87
2022/04/21 03:12:26;;;;;;;;;11.25;10.25;;;;;-146.67;100.00;57155.34;5084411;28;61843;-87
2022/04/21 03:14:53;;;;;;;;;12.00;11.50;;;;;-146.67;100.00;57155.34;5100315;27;62769;-86
2022/04/21 03:17:19;;;;;;;;;13.00;13.00;;;;;-146.67;100.00;57155.34;5085092;28;61980;-87
2022/04/21 03:19:44;;;;;;;;;13.50;13.00;;;;;-146.67;100.00;57155.34;5085013;28;61757;-87
2022/04/21 03:24:58;;;;;;;;;17.50;13.75;;;;;-146.67;100.00;57155.34;5084727;28;62038;-87
2022/04/21 03:27:23;;;;;;;;;12.75;12.00;;;;;-146.67;100.00;57155.34;5084910;28;62105;-87
2022/04/21 03:29:50;;;;;;;;;15.50;14.00;;;;;-146.67;100.00;57155.34;5100168;27;61945;-86
2022/04/21 03:32:15;;;;;;;;;16.00;11.75;;;;;-146.67;100.00;57155.34;5083943;28;62059;-86
2022/04/21 03:34:42;;;;;;;;;16.00;13.50;;;;;-146.67;100.00;57155.34;5084891;28;61722;-87
2022/04/21 03:37:09;;;;;;;;;20.75;17.25;;;;;-146.67;100.00;57155.34;5100323;27;62629;-87
2022/04/21 03:39:36;;;;;;;;;15.50;14.00;;;;;-146.67;100.00;57155.34;5084308;28;61841;-86
2022/04/21 03:42:06;;;;;;;;;18.00;16.50;;;;;-146.67;100.00;57155.34;5099486;27;63851;-87
2022/04/21 03:44:32;;;;;;;;;20.75;17.50;;;;;-146.67;100.00;57155.34;5084282;28;61895;-86
2022/04/21 03:46:58;;;;;;;;;17.25;17.00;;;;;-146.67;100.00;57155.34;5083674;28;61896;-87
2022/04/21 03:49:28;;;;;;;;;23.00;20.00;;;;;-146.67;100.00;57155.34;5100184;27;62047;-87
2022/04/21 03:51:55;;;;;;;;;19.00;15.75;;;;;-146.67;100.00;57155.34;5099320;27;63839;-87
2022/04/21 03:54:22;;;;;;;;;20.00;15.50;;;;;-146.67;100.00;57155.34;5084461;28;61978;-87
2022/04/21 03:56:48;;;;;;;;;24.25;18.00;;;;;-146.67;100.00;57155.34;5099989;27;61822;-87
2022/04/21 03:59:13;;;;;;;;;22.00;19.75;;;;;-146.67;100.00;57155.34;5084204;28;62121;-87
2022/04/21 04:01:40;;;;;;;;;18.00;15.00;;;;;-146.67;100.00;57155.34;5098871;27;64943;-87
2022/04/21 04:04:06;;;;;;;;;14.75;13.00;;;;;-146.67;100.00;57155.34;5083844;28;61770;-87
2022/04/21 04:11:59;;;;;;;;;22.50;19.25;;;;;-146.67;100.00;57155.34;5083485;28;61847;-87
2022/04/21 04:14:25;;;;;;;;;21.50;18.50;;;;;-146.67;100.00;57155.34;5082522;28;61846;-87
2022/04/21 04:16:51;;;;;;;;;15.25;11.50;;;;;-146.67;100.00;57155.34;5083282;27;61809;-86
2022/04/21 04:19:17;;;;;;;;;9.25;9.00;;;;;-146.67;100.00;57155.34;5099196;27;61733;-86
2022/04/21 04:21:42;;;;;;;;;13.50;12.00;;;;;-146.67;100.00;57155.34;5082414;27;61775;-86
2022/04/21 04:24:07;;;;;;;;;11.00;11.00;;;;;-146.67;100.00;57155.34;5083003;28;61839;-84
2022/04/21 04:26:33;;;;;;;;;11.25;9.50;;;;;-146.67;100.00;57155.34;5083501;27;62217;-87
2022/04/21 04:28:59;;;;;;;;;9.25;6.50;;;;;-146.67;100.00;57155.34;5083700;28;61800;-86
2022/04/21 04:31:25;;;;;;;;;7.00;7.00;;;;;-146.67;100.00;57155.34;5082854;28;61896;-86
2022/04/21 04:33:51;;;;;;;;;8.50;7.50;;;;;-146.67;100.00;57155.34;5082042;28;61716;-87
2022/04/21 04:36:16;;;;;;;;;10.00;8.00;;;;;-146.67;100.00;57155.34;5081987;28;62132;-87
2022/04/21 04:38:44;;;;;;;;;7.00;6.00;;;;;-146.67;100.00;57155.34;5083681;28;62066;-83
2022/04/21 04:43:54;;;;;;;;;6.75;6.75;;;;;-146.67;100.00;57155.34;5083499;28;61913;-81
2022/04/21 04:46:34;;;;;;;;;9.00;8.00;;;;;-146.67;100.00;57155.34;5082980;27;62217;-81
2022/04/21 04:49:04;;;;;;;;;8.00;6.25;;;;;-146.67;100.00;57155.34;5083648;27;61754;-80
2022/04/21 04:51:30;;;;;;;;;9.75;6.75;;;;;-146.67;100.00;57155.34;5081052;28;63786;-82
2022/04/21 04:53:55;;;;;;;;;5.50;5.50;;;;;-146.67;100.00;57155.34;5083192;27;61887;-81
2022/04/21 04:56:21;;;;;;;;;13.25;9.00;;;;;-146.67;100.00;57155.34;5083014;27;61860;-81
2022/04/21 04:58:47;;;;;;;;;9.50;8.25;;;;;-146.67;100.00;57155.34;5081856;27;62020;-81
2022/04/21 05:01:12;;;;;;;;;12.00;10.00;;;;;-146.67;100.00;57155.34;5082178;27;61824;-81
2022/04/21 05:03:39;;;;;;;;;8.50;8.00;;;;;-146.67;100.00;57155.34;5081636;28;61963;-82
2022/04/21 05:06:05;;;;;;;;;8.25;6.25;;;;;-146.67;100.00;57155.34;5083245;27;61912;-82
2022/04/21 05:08:30;;;;;;;;;7.75;7.75;;;;;-146.67;100.00;57155.34;5082417;28;62027;-83
2022/04/21 05:10:56;;;;;;;;;9.75;8.00;;;;;-146.67;100.00;57155.34;5101893;27;63728;-83
2022/04/21 05:13:21;;;;;;;;;9.25;9.25;;;;;-146.67;100.00;57155.34;5082536;27;62076;-83
2022/04/21 05:15:46;;;;;;;;;7.00;7.00;;;;;-146.67;100.00;57155.34;5083009;27;61853;-83
2022/04/21 05:18:12;;;;;;;;;12.00;8.50;;;;;-146.67;100.00;57155.34;5082944;27;61931;-83
2022/04/21 05:20:38;;;;;;;;;9.75;6.00;;;;;-146.67;100.00;57155.34;5077030;28;65222;-83
2022/04/21 05:23:05;;;;;;;;;8.50;8.50;;;;;-146.67;100.00;57155.34;5062292;28;61878;-83
2022/04/21 05:25:36;;;;;;;;;9.25;9.00;;;;;-146.67;100.00;57155.34;5062483;28;61962;-82
2022/04/21 05:28:02;;;;;;;;;8.75;8.75;;;;;-146.67;100.00;57155.34;5063804;28;61805;-82
2022/04/21 05:33:15;;;;;;;;;10.00;9.75;;;;;-146.67;100.00;57155.34;5082038;28;62030;-83
2022/04/21 05:35:40;;;;;;;;;10.75;8.75;;;;;-146.67;100.00;57155.34;5079446;28;62089;-83
2022/04/21 05:38:06;;;;;;;;;10.00;7.00;;;;;-146.67;100.00;57155.34;5081760;27;61826;-83
2022/04/21 05:40:32;;;;;;;;;11.50;10.25;;;;;-146.67;100.00;57155.34;5082625;27;63679;-83
2022/04/21 05:43:02;;;;;;;;;13.25;10.75;;;;;-146.67;100.00;57155.34;5081443;28;61865;-83
2022/04/21 05:45:28;;;;;;;;;12.00;8.75;;;;;-146.67;100.00;57155.34;5081538;27;61882;-82
2022/04/21 05:47:54;;;;;;;;;13.75;10.00;;;;;-146.67;100.00;57155.34;5081948;27;61866;-83
2022/04/21 05:50:19;;;;;;;;;13.75;9.25;;;;;-146.67;100.00;57155.34;5078238;28;61937;-82
2022/04/21 05:52:51;;;;;;;;;10.00;10.00;;;;;-146.67;100.00;57155.34;5102319;27;62090;-82
2022/04/21 05:55:17;;;;;;;;;12.75;8.75;;;;;-146.67;100.00;57155.34;5087131;28;61933;-83
2022/04/21 05:57:43;;;;;;;;;12.00;10.25;;;;;-146.67;100.00;57155.34;5082093;28;61820;-82
2022/04/21 06:00:11;;;;;;;;;11.00;11.00;;;;;-146.67;100.00;57155.34;5081334;28;62775;-81
2022/04/21 06:02:37;;;;;;;;;10.50;10.00;;;;;-146.67;100.00;57155.34;5080758;28;61932;-82
2022/04/21 06:05:06;;;;;;;;;9.25;9.25;;;;;-146.67;100.00;57155.34;5100451;27;61790;-82
2022/04/21 06:07:33;;;;;;;;;7.75;6.00;;;;;-146.67;100.00;57155.34;5082889;27;61726;-84
2022/04/21 06:10:00;;;;;;;;;11.00;10.75;;;;;-146.67;100.00;57155.34;5081065;27;62461;-87
2022/04/21 06:12:26;;;;;;;;;9.50;9.50;;;;;-146.67;100.00;57155.34;5097783;27;61839;-81
2022/04/21 06:14:52;;;;;;;;;14.50;11.00;;;;;-146.67;100.00;57155.34;5081581;27;61782;-82
2022/04/21 06:17:18;;;;;;;;;13.50;12.25;;;;;-146.67;100.00;57155.34;5082222;28;61746;-82
2022/04/21 06:19:43;;;;;;;;;13.00;9.50;;;;;-146.67;100.00;57155.34;5081028;27;61746;-82
2022/04/21 06:22:09;;;;;;;;;13.25;10.00;;;;;-146.67;100.00;57155.34;5082102;27;61898;-81
2022/04/21 06:24:57;;;;;;;;;9.75;9.25;;;;;-146.67;100.00;57155.34;5081292;27;61656;-81
2022/04/21 06:27:22;;;;;;;;;9.50;9.50;;;;;-146.67;100.00;57155.34;5097532;27;61734;-81
2022/04/21 06:29:48;;;;;;;;;11.25;10.25;;;;;-146.67;100.00;57155.34;5081158;27;61766;-82
2022/04/21 06:32:13;;;;;;;;;9.00;9.00;;;;;-146.67;100.00;57155.34;5081878;27;62026;-82
2022/04/21 06:34:38;;;;;;;;;12.00;9.25;;;;;-146.67;100.00;57155.34;5081610;27;62331;-82
2022/04/21 06:37:04;;;;;;;;;12.50;11.00;;;;;-146.67;100.00;57155.34;5081979;27;61802;-82
2022/04/21 06:39:29;;;;;;;;;9.00;8.00;;;;;-146.67;100.00;57155.34;5080177;27;63000;-85
2022/04/21 06:41:55;;;;;;;;;11.25;10.00;;;;;-146.67;100.00;57155.34;5081206;27;61814;-82
2022/04/21 06:49:49;;;;;;;;;10.00;10.00;;;;;-146.67;100.00;57155.34;5080219;28;61956;-83
2022/04/21 06:52:14;;;;;;;;;9.75;9.75;;;;;-146.67;100.00;57155.34;5081231;27;61917;-83
2022/04/21 06:54:39;;;;;;;;;11.50;10.25;;;;;-146.67;100.00;57155.34;5080689;27;61906;-83
2022/04/21 06:57:05;;;;;;;;;11.25;10.50;;;;;-146.67;100.00;57155.34;5096981;27;62156;-83
2022/04/21 06:59:30;;;;;;;;;13.25;10.00;;;;;-146.67;100.00;57155.34;5096294;27;63921;-82
2022/04/21 07:01:56;;;;;;;;;9.75;9.00;;;;;-146.67;100.00;57155.34;5096738;27;62139;-82
2022/04/21 07:04:21;;;;;;;;;19.00;15.00;;;;;-146.67;100.00;57155.34;5081445;27;61817;-83
2022/04/21 07:06:47;;;;;;;;;8.75;8.75;;;;;-146.67;100.00;57155.34;5081232;27;62162;-83
2022/04/21 07:09:12;;;;;;;;;8.75;8.50;;;;;-146.67;100.00;57155.34;5080205;27;61818;-82
2022/04/21 07:11:40;;;;;;;;;10.25;9.00;;;;;-146.67;100.00;57155.34;5081007;28;61773;-83
2022/04/21 07:14:06;;;;;;;;;12.25;11.25;;;;;-146.67;100.00;57155.34;5097043;27;61900;-82
2022/04/21 07:16:32;;;;;;;;;11.50;10.75;;;;;-146.67;100.00;57155.34;5097195;27;61868;-82
2022/04/21 07:18:57;;;;;;;;;12.00;10.50;;;;;-146.67;100.00;57155.34;5080684;27;62604;-83
2022/04/21 07:21:23;;;;;;;;;10.75;10.25;;;;;-146.67;100.00;57155.34;5082836;27;61872;-83
2022/04/21 07:23:49;;;;;;;;;9.50;9.50;;;;;-146.67;100.00;57155.34;5084410;27;61783;-83
2022/04/21 07:26:15;;;;;;;;;16.25;12.00;;;;;-146.67;100.00;57155.34;5085098;27;61954;-83
2022/04/21 07:28:43;;;;;;;;;11.75;9.00;;;;;-146.67;100.00;57155.34;5084157;28;62095;-82
2022/04/21 07:31:08;;;;;;;;;10.00;8.50;;;;;-146.67;100.00;57155.34;5100077;27;61832;-82
2022/04/21 07:33:34;;;;;;;;;10.50;8.00;;;;;-146.67;100.00;57155.34;5084471;27;61937;-82
2022/04/21 07:35:59;;;;;;;;;11.50;10.00;;;;;-146.67;100.00;57155.34;5100423;27;62256;-83
2022/04/21 07:38:24;;;;;;;;;4.50;3.75;;;;;-146.67;100.00;57155.34;5083476;27;62076;-83
2022/04/21 07:40:53;;;;;;;;;12.00;10.00;;;;;-146.67;100.00;57155.34;5082484;28;62004;-82
2022/04/21 07:43:19;;;;;;;;;12.25;9.75;;;;;-146.67;100.00;57155.34;5084756;27;61906;-83
2022/04/21 07:45:45;;;;;;;;;11.75;9.25;;;;;-146.67;100.00;57155.34;5084210;27;61770;-82
2022/04/21 07:48:10;;;;;;;;;15.75;11.75;;;;;-146.67;100.00;57155.34;5083545;27;61919;-82
2022/04/21 07:50:36;;;;;;;;;11.00;9.00;;;;;-146.67;100.00;57155.34;5084381;27;61822;-82
2022/04/21 07:53:14;;;;;;;;;12.50;11.50;;;;;-146.67;100.00;57155.34;5083885;27;61816;-83
2022/04/21 07:55:48;;;;;;;;;10.25;9.25;;;;;-146.67;100.00;57155.34;5082970;28;61842;-83
2022/04/21 07:58:14;;;;;;;;;14.75;11.50;;;;;-146.67;100.00;57155.34;5082437;28;64661;-83
2022/04/21 08:00:40;;;;;;;;;9.50;9.00;;;;;-146.67;100.00;57155.34;5082884;28;61933;-82
2022/04/21 08:03:09;;;;;;;;;10.00;10.00;;;;;-146.67;100.00;57155.34;5084212;27;62072;-83
2022/04/21 08:05:35;;;;;;;;;11.00;9.75;;;;;-146.67;100.00;57155.34;5083968;27;61975;-82
2022/04/21 08:08:02;;;;;;;;;12.50;9.25;;;;;-146.67;100.00;57155.34;5083093;27;61704;-83
2022/04/21 08:10:27;;;;;;;;;10.25;9.25;;;;;-146.67;100.00;57155.34;5084087;27;61774;-83
2022/04/21 08:12:54;;;;;;;;;12.00;9.25;;;;;-146.67;100.00;57155.34;5083822;27;61742;-82
2022/04/21 08:15:26;;;;;;;;;12.75;7.50;;;;;-146.67;100.00;57155.34;5084128;28;61741;-82
2022/04/21 08:17:53;;;;;;;;;15.75;11.00;;;;;-146.67;100.00;57155.34;5083372;27;62736;-83
2022/04/21 08:20:19;;;;;;;;;15.50;11.75;;;;;-146.67;100.00;57155.34;5083502;27;61789;-83
2022/04/21 08:22:44;;;;;;;;;12.00;10.00;;;;;-146.67;100.00;57155.34;5083827;27;61727;-83
2022/04/21 08:33:22;;;;;;;;;13.50;7.25;;;;;-146.67;100.00;57155.34;5084821;28;61903;-83
2022/04/21 08:35:49;;;;;;;;;10.50;8.00;;;;;-146.67;100.00;57155.34;5083657;28;61905;-84
2022/04/21 08:38:16;;;;;;;;;10.75;8.00;;;;;-146.67;100.00;57155.34;5082336;27;62159;-83
2022/04/21 08:40:51;;;;;;;;;13.25;10.25;;;;;-146.67;100.00;57155.34;5083275;28;61916;-83
2022/04/21 08:43:17;;;;;;;;;5.50;4.00;;;;;-146.67;100.00;57155.34;5083397;28;61743;-83
2022/04/21 08:45:44;;;;;;;;;8.75;8.50;;;;;-146.67;100.00;57155.34;5099224;27;62133;-83
2022/04/21 08:48:14;;;;;;;;;11.00;10.00;;;;;-146.67;100.00;57155.34;5082565;28;62658;-83
2022/04/21 08:50:41;;;;;;;;;9.75;9.25;;;;;-146.67;100.00;57155.34;5083200;28;61784;-83
2022/04/21 08:53:08;;;;;;;;;10.50;9.00;;;;;-146.67;100.00;57155.34;5083173;28;61969;-83
2022/04/21 08:55:34;;;;;;;;;9.00;6.25;;;;;-146.67;100.00;57155.34;5083477;28;61980;-83
2022/04/21 08:58:01;;;;;;;;;11.50;9.75;;;;;-146.67;100.00;57155.34;5082788;28;62979;-84
2022/04/21 09:00:26;;;;;;;;;9.25;8.00;;;;;-146.67;100.00;57155.34;5098578;27;61970;-83
2022/04/21 09:02:53;;;;;;;;;8.00;7.00;;;;;-146.67;100.00;57155.34;5083267;28;61909;-83
2022/04/21 09:05:22;;;;;;;;;12.50;9.75;;;;;-146.67;100.00;57155.34;5083184;28;61982;-83
2022/04/21 09:07:49;;;;;;;;;6.00;5.00;;;;;-146.67;100.00;57155.34;5082338;28;61821;-83
2022/04/21 09:10:16;;;;;;;;;7.75;6.50;;;;;-146.67;100.00;57155.34;5082524;28;62727;-83
2022/04/21 09:12:46;;;;;;;;;5.50;5.50;;;;;-146.67;100.00;57155.34;5082673;28;61969;-83
2022/04/21 09:15:17;;;;;;;;;7.00;6.50;;;;;-146.67;100.00;57155.34;5098263;27;62281;-83
2022/04/21 09:18:10;;;;;;;;;8.00;5.50;;;;;-146.67;100.00;57155.34;5082054;27;62866;-83
2022/04/21 09:20:36;;;;;;;;;8.00;6.50;;;;;-146.67;100.00;57155.34;5079435;28;61994;-84
2022/04/21 09:23:07;;;;;;;;;6.25;5.00;;;;;-146.67;100.00;57155.34;5098227;27;61858;-83
2022/04/21 09:25:47;;;;;;;;;10.00;7.75;;;;;-146.67;100.00;57155.34;5082691;28;61774;-83
2022/04/21 09:28:24;;;;;;;;;8.75;6.75;;;;;-146.67;100.00;57155.34;5097584;27;64133;-83
2022/04/21 09:30:52;;;;;;;;;6.25;5.75;;;;;-146.67;100.00;57155.34;5082453;28;61801;-83
2022/04/21 09:33:27;;;;;;;;;9.50;6.75;;;;;-146.67;100.00;57155.34;5097942;27;61782;-83
2022/04/21 09:35:55;;;;;;;;;7.75;7.25;;;;;-146.67;100.00;57155.34;5081751;27;61821;-83
2022/04/21 09:38:21;;;;;;;;;10.00;9.00;;;;;-146.67;100.00;57155.34;5097125;27;63788;-84
2022/04/21 09:40:47;;;;;;;;;12.00;7.25;;;;;-146.67;100.00;57155.34;5082435;28;61928;-82
2022/04/21 09:43:12;;;;;;;;;8.50;4.25;;;;;-146.67;100.00;57155.34;5081894;27;61723;-83
2022/04/21 09:48:26;;;;;;;;;10.00;5.00;;;;;-146.67;100.00;57155.34;5081392;28;62411;-83
2022/04/21 09:50:56;;;;;;;;;8.50;5.50;;;;;-146.67;100.00;57155.34;5082450;27;61894;-83
2022/04/21 09:53:23;;;;;;;;;12.00;8.75;;;;;-146.67;100.00;57155.34;5081031;28;61870;-82
2022/04/21 09:56:09;;;;;;;;;14.25;9.00;;;;;-146.67;100.00;57155.34;5081564;28;62011;-83
2022/04/21 09:58:38;;;;;;;;;8.75;8.75;;;;;-146.67;100.00;57155.34;5080049;28;64303;-83
2022/04/21 10:01:04;;;;;;;;;14.25;7.50;;;;;-146.67;100.00;57155.34;5082169;27;61790;-83
2022/04/21 10:03:33;;;;;;;;;12.00;8.25;;;;;-146.67;100.00;57155.34;5079844;28;61935;-83
2022/04/21 10:06:00;;;;;;;;;11.25;7.75;;;;;-146.67;100.00;57155.34;5082115;27;61825;-83
2022/04/21 10:08:25;;;;;;;;;9.00;8.00;;;;;-146.67;100.00;57155.34;5081164;27;62872;-83
2022/04/21 10:10:53;;;;;;;;;6.00;5.50;;;;;-146.67;100.00;57155.34;5080825;28;62028;-83
2022/04/21 10:13:19;;;;;;;;;6.50;5.00;;;;;-146.67;100.00;57155.34;5115169;27;61958;-83
2022/04/21 10:15:45;;;;;;;;;13.25;7.50;;;;;-146.67;100.00;57155.34;5085958;28;61848;-83
2022/04/21 10:18:18;;;;;;;;;11.25;7.00;;;;;-146.67;100.00;57155.34;5086641;27;62894;-83
2022/04/21 10:20:47;;;;;;;;;9.00;6.25;;;;;-146.67;100.00;57155.34;5080562;28;61900;-83
2022/04/21 10:23:17;;;;;;;;;7.50;4.00;;;;;-146.67;100.00;57155.34;5082067;27;61766;-83
2022/04/21 10:25:43;;;;;;;;;7.50;3.75;;;;;-146.67;100.00;57155.34;5082279;27;62056;-83
2022/04/21 10:28:33;;;;;;;;;8.50;5.00;;;;;-146.67;100.00;57155.34;5081306;28;61865;-83
2022/04/21 10:30:58;;;;;;;;;4.75;4.25;;;;;-146.67;100.00;57155.34;5081208;28;61877;-84
2022/04/21 10:33:54;;;;;;;;;8.25;4.75;;;;;-146.67;100.00;57155.34;5081641;27;61837;-83
2022/04/21 10:36:36;;;;;;;;;6.50;4.50;;;;;-146.67;100.00;57155.34;5081146;27;62222;-84
2022/04/21 10:39:16;;;;;;;;;7.75;6.00;;;;;-146.67;100.00;57155.34;5075821;28;64195;-84
2022/04/21 10:41:42;;;;;;;;;6.75;6.00;;;;;-146.67;100.00;57155.34;5061417;28;61881;-83
2022/04/21 10:44:27;;;;;;;;;5.25;4.25;;;;;-146.67;100.00;57155.34;5060305;28;61755;-83
2022/04/21 10:47:36;;;;;;;;;5.25;5.00;;;;;-146.67;100.00;57155.34;5061254;28;61790;-83
2022/04/21 10:50:10;;;;;;;;;8.00;5.50;;;;;-146.67;100.00;57155.34;5061220;28;61968;-83
2022/04/21 10:58:32;;;;;;;;;8.75;5.00;;;;;-146.67;100.00;57155.34;5065121;28;61731;-83
2022/04/21 11:01:28;;;;;;;;;6.00;4.25;;;;;-146.67;100.00;57155.34;5064534;28;62938;-82
2022/04/21 11:04:09;;;;;;;;;6.25;6.25;;;;;-146.67;100.00;57155.34;5110430;27;62002;-83
2022/04/21 11:06:43;;;;;;;;;5.00;4.25;;;;;-146.67;100.00;57155.34;5083385;28;62432;-83
2022/04/21 11:09:28;;;;;;;;;9.75;6.25;;;;;-146.67;100.00;57155.34;5082899;27;61918;-83
2022/04/21 11:11:54;;;;;;;;;4.50;3.75;;;;;-146.67;100.00;57155.34;5083266;28;61844;-83
2022/04/21 11:14:29;;;;;;;;;5.00;5.00;;;;;-146.67;100.00;57155.34;5099364;27;61890;-83
2022/04/21 11:17:00;;;;;;;;;5.25;4.50;;;;;-146.67;100.00;57155.34;5084232;28;61909;-82
2022/04/21 11:19:28;;;;;;;;;7.00;4.50;;;;;-146.67;100.00;57155.34;5084180;27;62243;-81
2022/04/21 11:21:55;;;;;;;;;5.25;4.50;;;;;-146.67;100.00;57155.34;5082804;28;61839;-83
2022/04/21 11:24:21;;;;;;;;;5.50;4.75;;;;;-146.67;100.00;57155.34;5083899;27;62076;-83
2022/04/21 11:26:53;;;;;;;;;8.00;4.00;;;;;-146.67;100.00;57155.34;5099388;27;61971;-83
2022/04/21 11:29:19;;;;;;;;;6.75;5.50;;;;;-146.67;100.00;57155.34;5084283;27;62109;-84
2022/04/21 11:31:45;;;;;;;;;7.75;4.00;;;;;-146.67;100.00;57155.34;5083607;27;61929;-83
2022/04/21 11:34:10;;;;;;;;;5.50;3.50;;;;;-146.67;100.00;57155.34;5084544;28;61716;-84
2022/04/21 11:36:40;;;;;;;;;6.75;5.75;;;;;-146.67;100.00;57155.34;5084472;28;61967;-83
2022/04/21 11:39:10;;;;;;;;;5.75;4.25;;;;;-146.67;100.00;57155.34;5084308;27;61890;-83
2022/04/21 11:41:42;;;;;;;;;9.00;4.75;;;;;-146.67;100.00;57155.34;5083909;27;62813;-82
2022/04/21 11:44:08;;;;;;;;;5.25;3.75;;;;;-146.67;100.00;57155.34;5084335;27;61774;-83
2022/04/21 11:46:37;;;;;;;;;6.00;6.00;;;;;-146.67;100.00;57155.34;5084334;27;61973;-83
2022/04/21 11:49:03;;;;;;;;;3.25;3.25;;;;;-146.67;100.00;57155.34;5084502;27;61894;-84
2022/04/21 11:51:29;;;;;;;;;6.25;5.00;;;;;-146.67;100.00;57155.34;5083633;27;61852;-83